Terminal Aerodrome Forecast
Issued by NWS

Home | Current Version | Previous Version | Text Only | Print | Product List | Glossary On
Versions: 1 2 3 4 5 6 7 8 9 10 11 12 13 14 15 16 17
000
FTUS43 KJKL 180527
TAFSME
TAF
KSME 180527Z 1806/1906 28006KT P6SM OVC016
     FM180800 VRB04KT P6SM BKN015
     FM180900 VRB03KT P6SM BKN025
     FM181100 VRB03KT P6SM SCT040
     FM181600 VRB04KT P6SM SCT200=

USA.gov is the U.S. government's official web portal to all federal, state and local government web resources and services.